createdAt,value
2019-02-17T00:00:39.288Z,56.00
2019-02-17T00:03:09.524Z,56.20
2019-02-17T00:05:42.545Z,56.20
2019-02-17T00:08:12.837Z,56.20
2019-02-17T00:10:43.106Z,56.20
2019-02-17T00:13:13.284Z,56.20
2019-02-17T00:15:43.115Z,56.30
2019-02-17T00:18:13.020Z,56.30
2019-02-17T00:20:42.819Z,56.30
2019-02-17T00:23:12.715Z,56.40
2019-02-17T00:25:42.628Z,56.40
2019-02-17T00:28:12.437Z,56.40
2019-02-17T00:30:42.212Z,56.40
2019-02-17T00:33:12.028Z,56.40
2019-02-17T00:35:41.826Z,56.40
2019-02-17T00:38:11.619Z,56.40
2019-02-17T00:40:41.702Z,56.30
2019-02-17T00:43:11.544Z,56.40
2019-02-17T00:45:41.353Z,56.40
2019-02-17T00:48:11.328Z,56.40
2019-02-17T00:50:41.183Z,56.40
2019-02-17T00:53:10.998Z,56.40
2019-02-17T00:55:40.740Z,56.40
2019-02-17T00:58:10.678Z,56.50
2019-02-17T01:00:40.654Z,57.20
2019-02-17T01:03:10.561Z,56.70
2019-02-17T01:05:40.423Z,56.80
2019-02-17T01:08:10.254Z,56.80
2019-02-17T01:10:40.018Z,56.80
2019-02-17T01:13:09.842Z,56.90
2019-02-17T01:15:39.658Z,56.90
2019-02-17T01:18:09.630Z,56.90
2019-02-17T01:20:39.429Z,56.90
2019-02-17T01:23:09.262Z,56.90
2019-02-17T01:25:39.138Z,56.90
2019-02-17T01:28:09.062Z,57.00
2019-02-17T01:30:39.165Z,57.00
2019-02-17T01:33:09.485Z,57.00
2019-02-17T01:35:39.384Z,57.00
2019-02-17T01:38:09.895Z,57.00
2019-02-17T01:40:39.815Z,57.10
2019-02-17T01:43:09.666Z,57.10
2019-02-17T01:45:39.471Z,57.10
2019-02-17T01:48:09.737Z,57.10
2019-02-17T01:50:39.567Z,57.10
2019-02-17T01:53:09.365Z,57.10
2019-02-17T01:55:39.186Z,57.10
2019-02-17T01:58:08.955Z,57.10
2019-02-17T02:00:38.795Z,57.20
2019-02-17T02:03:08.586Z,57.20
2019-02-17T02:05:38.349Z,57.20
2019-02-17T02:08:08.293Z,57.30
2019-02-17T02:10:38.194Z,57.40
2019-02-17T02:13:08.011Z,57.50
2019-02-17T02:15:37.764Z,58.20
2019-02-17T02:18:07.557Z,57.70
2019-02-17T02:20:37.383Z,57.60
2019-02-17T02:23:07.149Z,57.60
2019-02-17T02:25:37.162Z,57.60
2019-02-17T02:28:06.874Z,57.60
2019-02-17T02:30:36.708Z,57.60
2019-02-17T02:33:06.485Z,57.50
2019-02-17T02:35:36.488Z,57.60
2019-02-17T02:38:06.333Z,57.60
2019-02-17T02:40:36.147Z,57.60
2019-02-17T02:43:06.009Z,57.90
2019-02-17T02:45:35.911Z,58.00
2019-02-17T02:48:05.660Z,58.10
2019-02-17T02:50:35.617Z,58.20
2019-02-17T02:53:05.445Z,58.20
2019-02-17T02:55:35.250Z,58.20
2019-02-17T02:58:05.018Z,58.20
2019-02-17T03:00:34.859Z,58.20
2019-02-17T03:03:04.750Z,58.10
2019-02-17T03:05:36.139Z,58.10
2019-02-17T03:08:05.952Z,58.10
2019-02-17T03:10:35.852Z,58.10
2019-02-17T03:13:05.617Z,58.10
2019-02-17T03:15:35.435Z,58.10
2019-02-17T03:18:05.257Z,58.10
2019-02-17T03:20:35.101Z,58.10
2019-02-17T03:23:04.857Z,58.10
2019-02-17T03:25:34.703Z,58.10
2019-02-17T03:28:04.497Z,58.20
2019-02-17T03:30:34.368Z,58.10
2019-02-17T03:33:04.189Z,58.20
2019-02-17T03:35:34.137Z,58.20
2019-02-17T03:38:04.016Z,58.20
2019-02-17T03:40:33.828Z,58.20
2019-02-17T03:43:03.662Z,58.20
2019-02-17T03:45:33.556Z,58.20
2019-02-17T03:48:03.284Z,58.20
2019-02-17T03:50:33.093Z,58.10
2019-02-17T03:53:02.880Z,58.20
2019-02-17T03:55:32.761Z,58.20
2019-02-17T03:58:02.521Z,58.20
2019-02-17T04:00:32.426Z,58.10
2019-02-17T04:03:02.776Z,58.10
2019-02-17T04:05:32.766Z,58.30
2019-02-17T04:08:02.562Z,58.60
2019-02-17T04:10:32.543Z,58.30
2019-02-17T04:13:02.406Z,58.40
2019-02-17T04:15:32.157Z,58.40
2019-02-17T04:18:02.002Z,58.50
2019-02-17T04:20:32.052Z,58.60
2019-02-17T04:23:01.836Z,58.60
2019-02-17T04:25:31.604Z,58.60
2019-02-17T04:28:01.608Z,58.50
2019-02-17T04:30:31.520Z,58.50
2019-02-17T04:33:01.270Z,58.60
2019-02-17T04:35:31.104Z,58.60
2019-02-17T04:38:00.930Z,58.60
2019-02-17T04:40:30.720Z,58.60
2019-02-17T04:43:00.467Z,58.70
2019-02-17T04:45:30.317Z,58.70
2019-02-17T04:48:00.159Z,58.70
2019-02-17T04:50:30.009Z,58.70
2019-02-17T04:52:59.784Z,58.90
2019-02-17T04:55:29.889Z,58.80
2019-02-17T04:57:59.700Z,58.90
2019-02-17T05:00:39.673Z,58.80
2019-02-17T05:03:01.095Z,58.90
2019-02-17T05:05:30.979Z,59.10
2019-02-17T05:08:00.735Z,58.90
2019-02-17T05:10:30.631Z,59.00
2019-02-17T05:13:00.447Z,59.00
2019-02-17T05:15:30.257Z,59.10
2019-02-17T05:18:00.020Z,59.00
2019-02-17T05:20:29.991Z,59.00
2019-02-17T05:22:59.918Z,59.10
2019-02-17T05:25:29.724Z,59.10
2019-02-17T05:27:59.526Z,59.10
2019-02-17T05:30:29.470Z,59.10
2019-02-17T05:32:59.329Z,59.10
2019-02-17T05:35:29.141Z,59.10
2019-02-17T05:37:59.006Z,59.00
2019-02-17T05:40:28.867Z,59.20
2019-02-17T05:42:58.616Z,59.20
2019-02-17T05:45:28.461Z,59.20
2019-02-17T05:47:58.313Z,59.30
2019-02-17T05:50:28.124Z,59.40
2019-02-17T05:52:57.885Z,59.40
2019-02-17T05:55:27.757Z,59.30
2019-02-17T05:57:57.593Z,59.30
2019-02-17T06:00:30.799Z,59.40
2019-02-17T06:03:00.662Z,59.30
2019-02-17T06:05:30.482Z,59.30
2019-02-17T06:08:00.247Z,59.30
2019-02-17T06:10:30.053Z,59.40
2019-02-17T06:12:59.851Z,59.40
2019-02-17T06:15:29.662Z,59.40
2019-02-17T06:17:59.425Z,59.50
2019-02-17T06:20:29.308Z,59.40
2019-02-17T06:22:59.096Z,59.40
2019-02-17T06:25:28.902Z,59.40
2019-02-17T06:27:58.709Z,59.40
2019-02-17T06:30:28.649Z,59.30
2019-02-17T06:32:58.514Z,59.00
2019-02-17T06:35:28.322Z,59.40
2019-02-17T06:37:58.188Z,59.40
2019-02-17T06:40:28.054Z,59.40
2019-02-17T06:42:57.814Z,59.60
2019-02-17T06:45:27.644Z,59.60
2019-02-17T06:47:57.830Z,59.70
2019-02-17T06:50:27.680Z,59.60
2019-02-17T06:52:57.447Z,59.60
2019-02-17T06:55:55.134Z,59.70
2019-02-17T06:58:24.875Z,59.70
2019-02-17T07:00:56.815Z,59.70
2019-02-17T07:03:26.705Z,59.80
2019-02-17T07:06:15.390Z,59.90
2019-02-17T07:08:45.230Z,59.80
2019-02-17T07:11:15.011Z,59.90
2019-02-17T07:13:44.824Z,59.80
2019-02-17T07:16:14.740Z,59.90
2019-02-17T07:18:44.546Z,59.90
2019-02-17T07:21:14.353Z,60.00
2019-02-17T07:23:44.204Z,61.00
2019-02-17T07:26:17.136Z,60.00
2019-02-17T07:28:47.008Z,60.10
2019-02-17T07:31:16.953Z,60.00
2019-02-17T07:33:46.720Z,60.20
2019-02-17T07:36:16.511Z,60.30
2019-02-17T07:38:46.345Z,60.20
2019-02-17T07:41:16.241Z,60.10
2019-02-17T07:43:45.964Z,60.20
2019-02-17T07:46:15.813Z,60.20
2019-02-17T07:48:45.667Z,60.40
2019-02-17T07:51:15.495Z,60.50
2019-02-17T07:53:45.265Z,60.80
2019-02-17T07:56:15.115Z,60.90
2019-02-17T07:58:44.956Z,61.00
2019-02-17T08:01:14.739Z,61.00
2019-02-17T08:03:44.500Z,61.00
2019-02-17T08:06:14.351Z,61.00
2019-02-17T08:08:44.188Z,61.00
2019-02-17T08:11:13.950Z,60.80
2019-02-17T08:13:43.760Z,60.70
2019-02-17T08:16:13.611Z,60.60
2019-02-17T08:18:43.476Z,60.70
2019-02-17T08:21:13.304Z,60.70
2019-02-17T08:23:43.172Z,60.70
2019-02-17T08:26:14.197Z,60.60
2019-02-17T08:28:43.964Z,60.60
2019-02-17T08:31:13.760Z,60.70
2019-02-17T08:33:43.692Z,60.70
2019-02-17T08:36:13.533Z,60.80
2019-02-17T08:38:43.374Z,60.80
2019-02-17T08:41:13.237Z,60.90
2019-02-17T08:43:43.032Z,61.30
2019-02-17T08:46:12.857Z,61.30
2019-02-17T08:48:42.647Z,61.60
2019-02-17T08:51:12.481Z,61.90
2019-02-17T08:53:42.341Z,62.00
2019-02-17T08:56:12.110Z,62.10
2019-02-17T08:58:42.003Z,62.10
2019-02-17T09:01:11.760Z,62.00
2019-02-17T09:03:41.581Z,61.90
2019-02-17T09:06:11.366Z,62.10
2019-02-17T09:08:41.243Z,62.10
2019-02-17T09:11:10.988Z,62.30
2019-02-17T09:13:40.828Z,62.30
2019-02-17T09:16:10.770Z,62.60
2019-02-17T09:18:40.640Z,62.30
2019-02-17T09:21:10.362Z,62.30
2019-02-17T09:23:40.171Z,62.40
2019-02-17T09:26:09.972Z,62.30
2019-02-17T09:28:39.836Z,62.20
2019-02-17T09:31:09.629Z,62.10
2019-02-17T09:33:39.503Z,62.00
2019-02-17T09:36:09.278Z,61.90
2019-02-17T09:38:39.065Z,62.00
2019-02-17T09:41:08.832Z,61.80
2019-02-17T09:43:38.674Z,61.90
2019-02-17T09:46:08.486Z,61.80
2019-02-17T09:48:38.295Z,61.70
2019-02-17T09:51:08.089Z,61.60
2019-02-17T09:53:38.017Z,61.70
2019-02-17T09:56:07.830Z,61.60
2019-02-17T09:58:37.638Z,61.60
2019-02-17T10:01:07.544Z,61.60
2019-02-17T10:03:37.396Z,61.60
2019-02-17T10:06:07.156Z,61.60
2019-02-17T10:08:37.103Z,61.50
2019-02-17T10:11:06.889Z,61.50
2019-02-17T10:13:36.698Z,61.50
2019-02-17T10:16:06.443Z,61.40
2019-02-17T10:18:36.303Z,61.30
2019-02-17T10:21:06.209Z,61.40
2019-02-17T10:23:36.057Z,61.20
2019-02-17T10:26:05.912Z,61.30
2019-02-17T10:28:42.167Z,61.30
2019-02-17T10:31:07.220Z,61.40
2019-02-17T10:33:37.059Z,61.30
2019-02-17T10:36:06.831Z,61.20
2019-02-17T10:38:36.665Z,61.30
2019-02-17T10:41:06.603Z,61.30
2019-02-17T10:43:36.419Z,61.30
2019-02-17T10:46:06.216Z,61.30
2019-02-17T10:48:36.157Z,61.30
2019-02-17T10:51:06.004Z,61.30
2019-02-17T10:53:35.802Z,61.40
2019-02-17T10:56:05.553Z,61.40
2019-02-17T10:58:35.398Z,61.40
2019-02-17T11:01:05.240Z,61.40
2019-02-17T11:03:35.031Z,61.40
2019-02-17T11:06:04.870Z,61.50
2019-02-17T11:08:34.737Z,61.30
2019-02-17T11:11:04.543Z,61.30
2019-02-17T11:13:34.385Z,61.20
2019-02-17T11:16:04.177Z,61.20
2019-02-17T11:18:34.140Z,61.10
2019-02-17T11:21:03.950Z,61.10
2019-02-17T11:23:33.891Z,61.20
2019-02-17T11:26:03.681Z,61.10
2019-02-17T11:28:33.497Z,61.00
2019-02-17T11:31:03.278Z,61.00
2019-02-17T11:33:33.178Z,61.00
2019-02-17T11:36:02.993Z,60.90
2019-02-17T11:38:32.785Z,60.90
2019-02-17T11:41:03.150Z,60.80
2019-02-17T11:43:33.015Z,60.90
2019-02-17T11:46:02.767Z,60.80
2019-02-17T11:48:32.560Z,60.80
2019-02-17T11:51:02.348Z,60.80
2019-02-17T11:53:32.238Z,60.80
2019-02-17T11:56:01.996Z,60.90
2019-02-17T11:58:31.847Z,60.90
2019-02-17T12:01:01.689Z,60.80
2019-02-17T12:03:31.439Z,60.80
2019-02-17T12:06:01.253Z,60.80
2019-02-17T12:08:31.068Z,60.80
2019-02-17T12:11:01.299Z,60.80
2019-02-17T12:13:31.050Z,60.80
2019-02-17T12:16:00.964Z,60.80
2019-02-17T12:18:30.870Z,60.80
2019-02-17T12:21:26.178Z,60.70
2019-02-17T12:24:12.996Z,60.60
2019-02-17T12:27:06.039Z,60.40
2019-02-17T12:29:44.369Z,60.40
2019-02-17T12:32:14.150Z,60.30
2019-02-17T12:34:44.031Z,60.30
2019-02-17T12:37:13.846Z,60.20
2019-02-17T12:39:43.642Z,60.10
2019-02-17T12:42:13.417Z,60.00
2019-02-17T12:44:43.401Z,59.90
2019-02-17T12:47:13.235Z,59.80
2019-02-17T12:49:43.035Z,59.60
2019-02-17T12:52:12.821Z,59.50
2019-02-17T12:54:42.755Z,59.30
2019-02-17T12:57:12.538Z,59.10
2019-02-17T12:59:42.369Z,58.20
2019-02-17T13:02:12.150Z,58.60
2019-02-17T13:04:42.004Z,58.50
2019-02-17T13:07:11.757Z,58.30
2019-02-17T13:09:41.602Z,58.10
2019-02-17T13:12:11.448Z,58.00
2019-02-17T13:14:41.272Z,57.90
2019-02-17T13:17:11.181Z,57.50
2019-02-17T13:19:41.436Z,57.30
2019-02-17T13:22:11.355Z,57.30
2019-02-17T13:24:41.210Z,57.20
2019-02-17T13:27:10.987Z,56.90
2019-02-17T13:29:40.831Z,56.70
2019-02-17T13:32:10.585Z,56.40
2019-02-17T13:34:40.398Z,56.40
2019-02-17T13:37:10.179Z,56.30
2019-02-17T13:39:40.078Z,55.70
2019-02-17T13:42:09.888Z,55.50
2019-02-17T13:44:39.715Z,55.30
2019-02-17T13:47:10.025Z,55.10
2019-02-17T13:49:39.827Z,55.20
2019-02-17T13:52:09.831Z,55.00
2019-02-17T13:54:39.617Z,54.20
2019-02-17T13:57:09.397Z,54.30
2019-02-17T13:59:39.153Z,54.20
2019-02-17T14:02:08.978Z,53.90
2019-02-17T14:04:38.819Z,53.50
2019-02-17T14:07:08.664Z,53.50
2019-02-17T14:09:38.432Z,53.50
2019-02-17T14:12:08.222Z,53.00
2019-02-17T14:14:38.838Z,52.90
2019-02-17T14:17:08.758Z,52.70
2019-02-17T14:19:38.572Z,52.50
2019-02-17T14:22:08.520Z,52.40
2019-02-17T14:24:38.370Z,52.10
2019-02-17T14:27:08.362Z,51.50
2019-02-17T14:29:38.129Z,51.20
2019-02-17T14:32:08.048Z,50.50
2019-02-17T14:34:37.845Z,50.70
2019-02-17T14:37:07.669Z,50.60
2019-02-17T14:39:37.434Z,50.30
2019-02-17T14:42:07.262Z,50.00
2019-02-17T14:44:37.311Z,49.70
2019-02-17T14:47:07.137Z,48.80
2019-02-17T14:49:36.951Z,48.90
2019-02-17T14:52:06.818Z,48.60
2019-02-17T14:54:36.572Z,48.60
2019-02-17T14:57:06.358Z,48.00
2019-02-17T14:59:36.136Z,48.00
2019-02-17T15:02:06.073Z,47.70
2019-02-17T15:04:35.948Z,47.70
2019-02-17T15:07:06.232Z,47.10
2019-02-17T15:09:36.132Z,46.90
2019-02-17T15:12:05.933Z,47.00
2019-02-17T15:14:35.705Z,46.80
2019-02-17T15:17:05.528Z,46.70
2019-02-17T15:19:35.419Z,45.60
2019-02-17T15:22:05.248Z,45.70
2019-02-17T15:24:35.025Z,44.90
2019-02-17T15:27:04.986Z,44.50
2019-02-17T15:29:34.735Z,44.30
2019-02-17T15:32:04.555Z,44.60
2019-02-17T15:34:35.463Z,44.90
2019-02-17T15:37:05.456Z,45.00
2019-02-17T15:39:35.190Z,44.80
2019-02-17T15:42:05.042Z,44.90
2019-02-17T15:44:34.957Z,44.90
2019-02-17T15:47:04.777Z,45.60
2019-02-17T15:49:34.548Z,45.40
2019-02-17T15:52:04.536Z,45.30
2019-02-17T15:54:34.377Z,45.40
2019-02-17T15:57:04.195Z,45.70
2019-02-17T15:59:34.054Z,45.90
2019-02-17T16:02:03.917Z,46.00
2019-02-17T16:04:33.693Z,46.40
2019-02-17T16:07:03.528Z,46.50
2019-02-17T16:09:33.307Z,46.70
2019-02-17T16:12:03.176Z,46.80
2019-02-17T16:14:32.940Z,46.80
2019-02-17T16:17:02.743Z,47.00
2019-02-17T16:19:32.568Z,47.20
2019-02-17T16:22:02.403Z,47.20
2019-02-17T16:24:32.191Z,47.30
2019-02-17T16:27:02.057Z,47.40
2019-02-17T16:29:31.858Z,47.50
2019-02-17T16:32:01.795Z,48.20
2019-02-17T16:34:38.150Z,47.60
2019-02-17T16:37:03.235Z,47.80
2019-02-17T16:39:33.016Z,47.80
2019-02-17T16:42:02.813Z,47.80
2019-02-17T16:44:32.579Z,47.80
2019-02-17T16:47:02.474Z,47.80
2019-02-17T16:49:32.268Z,47.90
2019-02-17T16:52:02.129Z,47.90
2019-02-17T16:54:32.952Z,47.90
2019-02-17T16:57:02.874Z,47.90
2019-02-17T16:59:32.630Z,47.90
2019-02-17T17:02:18.519Z,47.90
2019-02-17T17:04:49.059Z,48.00
2019-02-17T17:07:19.281Z,48.00
2019-02-17T17:09:49.142Z,48.10
2019-02-17T17:12:18.966Z,48.10
2019-02-17T17:14:48.847Z,48.10
2019-02-17T17:17:18.760Z,48.20
2019-02-17T17:19:48.693Z,48.20
2019-02-17T17:22:18.526Z,48.30
2019-02-17T17:24:48.372Z,48.30
2019-02-17T17:27:18.194Z,48.40
2019-02-17T17:29:48.141Z,48.30
2019-02-17T17:32:19.581Z,48.50
2019-02-17T17:34:58.623Z,48.50
2019-02-17T17:37:21.034Z,48.80
2019-02-17T17:39:50.896Z,48.90
2019-02-17T17:42:20.648Z,49.00
2019-02-17T17:44:50.719Z,49.00
2019-02-17T17:47:20.532Z,49.20
2019-02-17T17:49:50.466Z,49.40
2019-02-17T17:52:20.316Z,49.60
2019-02-17T17:54:50.193Z,49.90
2019-02-17T17:57:19.939Z,50.00
2019-02-17T17:59:49.781Z,50.20
2019-02-17T18:02:19.699Z,50.30
2019-02-17T18:04:49.555Z,51.10
2019-02-17T18:07:19.398Z,50.50
2019-02-17T18:09:49.561Z,50.40
2019-02-17T18:12:19.364Z,50.30
2019-02-17T18:14:49.280Z,50.20
2019-02-17T18:17:19.056Z,50.40
2019-02-17T18:19:48.933Z,50.50
2019-02-17T18:22:18.688Z,50.40
2019-02-17T18:24:48.649Z,50.50
2019-02-17T18:27:18.426Z,50.40
2019-02-17T18:29:48.493Z,50.30
2019-02-17T18:32:18.872Z,50.50
2019-02-17T18:34:48.710Z,50.40
2019-02-17T18:37:18.469Z,50.30
2019-02-17T18:39:48.318Z,50.70
2019-02-17T18:42:18.092Z,50.50
2019-02-17T18:44:48.088Z,50.50
2019-02-17T18:47:19.763Z,50.50
2019-02-17T18:49:49.314Z,50.40
2019-02-17T18:52:19.164Z,50.40
2019-02-17T18:54:48.998Z,50.90
2019-02-17T18:57:18.791Z,50.30
2019-02-17T18:59:48.661Z,50.30
2019-02-17T19:02:18.453Z,50.40
2019-02-17T19:04:48.367Z,50.40
2019-02-17T19:07:18.167Z,50.40
2019-02-17T19:09:48.568Z,50.40
2019-02-17T19:12:18.460Z,50.20
2019-02-17T19:14:48.358Z,50.30
2019-02-17T19:17:18.176Z,50.40
2019-02-17T19:19:48.025Z,50.30
2019-02-17T19:22:17.812Z,50.30
2019-02-17T19:24:47.930Z,50.90
2019-02-17T19:27:18.029Z,50.20
2019-02-17T19:29:57.421Z,50.20
2019-02-17T19:32:27.263Z,50.20
2019-02-17T19:34:57.140Z,50.20
2019-02-17T19:37:26.889Z,50.30
2019-02-17T19:39:56.692Z,50.30
2019-02-17T19:42:26.511Z,50.30
2019-02-17T19:44:56.416Z,50.30
2019-02-17T19:47:26.291Z,50.30
2019-02-17T19:49:56.286Z,50.30
2019-02-17T19:52:26.042Z,50.80
2019-02-17T19:54:55.849Z,50.20
2019-02-17T19:57:25.609Z,50.20
2019-02-17T19:59:55.468Z,50.10
2019-02-17T20:02:40.912Z,50.10
2019-02-17T20:05:14.718Z,50.20
2019-02-17T20:07:44.524Z,50.00
2019-02-17T20:10:14.827Z,50.10
2019-02-17T20:12:44.902Z,50.30
2019-02-17T20:15:14.854Z,50.30
2019-02-17T20:17:44.864Z,50.30
2019-02-17T20:20:14.895Z,50.40
2019-02-17T20:22:44.672Z,50.40
2019-02-17T20:25:14.484Z,50.40
2019-02-17T20:27:44.400Z,50.50
2019-02-17T20:30:14.979Z,50.50
2019-02-17T20:32:45.159Z,50.40
2019-02-17T20:35:15.036Z,50.50
2019-02-17T20:37:44.932Z,50.40
2019-02-17T20:40:14.850Z,50.40
2019-02-17T20:42:44.816Z,50.40
2019-02-17T20:45:14.840Z,50.50
2019-02-17T20:47:44.723Z,50.60
2019-02-17T20:50:14.604Z,50.80
2019-02-17T20:52:44.505Z,50.80
2019-02-17T20:55:15.134Z,50.90
2019-02-17T20:57:44.922Z,51.10
2019-02-17T21:00:14.756Z,51.20
2019-02-17T21:02:44.567Z,51.20
2019-02-17T21:05:14.428Z,51.80
2019-02-17T21:07:44.239Z,51.30
2019-02-17T21:10:14.185Z,51.30
2019-02-17T21:12:43.976Z,51.30
2019-02-17T21:15:15.130Z,51.30
2019-02-17T21:17:44.939Z,51.30
2019-02-17T21:20:16.059Z,51.30
2019-02-17T21:22:45.863Z,51.30
2019-02-17T21:25:15.930Z,51.40
2019-02-17T21:27:46.141Z,51.50
2019-02-17T21:30:16.278Z,51.50
2019-02-17T21:32:46.457Z,51.60
2019-02-17T21:35:17.119Z,51.70
2019-02-17T21:37:47.183Z,51.70
2019-02-17T21:40:17.122Z,51.70
2019-02-17T21:42:47.390Z,51.80
2019-02-17T21:45:17.540Z,51.70
2019-02-17T21:47:47.703Z,51.80
2019-02-17T21:50:17.836Z,51.80
2019-02-17T21:52:48.434Z,51.80
2019-02-17T21:55:18.747Z,51.80
2019-02-17T21:57:49.154Z,51.90
2019-02-17T22:00:20.044Z,51.30
2019-02-17T22:02:52.858Z,51.90
2019-02-17T22:05:22.845Z,52.00
2019-02-17T22:07:53.067Z,51.90
2019-02-17T22:10:22.811Z,52.00
2019-02-17T22:12:52.640Z,52.00
2019-02-17T22:15:22.638Z,52.00
2019-02-17T22:17:52.510Z,52.10
2019-02-17T22:20:22.256Z,52.10
2019-02-17T22:22:52.162Z,52.10
2019-02-17T22:25:21.972Z,52.10
2019-02-17T22:27:51.796Z,52.20
2019-02-17T22:30:21.587Z,52.20
2019-02-17T22:32:51.514Z,52.30
2019-02-17T22:35:21.425Z,52.30
2019-02-17T22:37:51.242Z,52.30
2019-02-17T22:40:21.061Z,52.40
2019-02-17T22:42:50.887Z,52.40
2019-02-17T22:45:20.645Z,52.50
2019-02-17T22:47:50.450Z,52.50
2019-02-17T22:50:20.357Z,52.60
2019-02-17T22:52:50.272Z,52.60
2019-02-17T22:55:20.032Z,52.80
2019-02-17T22:57:49.964Z,52.60
2019-02-17T23:00:48.076Z,52.60
2019-02-17T23:03:17.972Z,52.70
2019-02-17T23:05:47.771Z,52.70
2019-02-17T23:08:17.615Z,52.70
2019-02-17T23:10:47.373Z,52.80
2019-02-17T23:13:17.252Z,52.80
2019-02-17T23:15:47.143Z,52.80
2019-02-17T23:18:16.971Z,52.90
2019-02-17T23:20:46.715Z,52.90
2019-02-17T23:23:16.670Z,53.00
2019-02-17T23:25:46.558Z,53.00
2019-02-17T23:28:16.472Z,53.10
2019-02-17T23:30:46.271Z,53.10
2019-02-17T23:33:16.077Z,53.10
2019-02-17T23:35:45.888Z,53.20
2019-02-17T23:38:15.722Z,53.20
2019-02-17T23:40:45.481Z,53.10
2019-02-17T23:43:15.282Z,53.20
2019-02-17T23:45:45.122Z,53.20
2019-02-17T23:48:15.020Z,53.30
2019-02-17T23:50:44.798Z,53.30
2019-02-17T23:53:14.664Z,53.30
2019-02-17T23:55:44.639Z,53.50
2019-02-17T23:58:14.440Z,53.50
